Time;durP1;ratioP1;P1;durP2;ratioP2;P2;SDS_P1;SDS_P2;PMS_P1;PMS_P2;Temp;Humidity;BMP_temperature;BMP_pressure;BME280_temperature;BME280_humidity;BME280_pressure;Samples;Min_cycle;Max_cycle;Signal;HPM_P1;HPM_P2
2022/01/04 00:01:01;;;;;;;13.40;4.63;;;;;;;-145.18;100.00;60484.78;5011386;28;20470;-67
2022/01/04 00:03:26;;;;;;;16.17;5.50;;;;;;;-145.18;100.00;60484.78;5011809;28;20110;-67
2022/01/04 00:05:51;;;;;;;14.63;5.20;;;;;;;-145.18;100.00;60484.78;5018284;28;20303;-67
2022/01/04 00:08:17;;;;;;;14.93;5.37;;;;;;;-145.18;100.00;60484.78;5019403;28;20289;-67
2022/01/04 00:10:43;;;;;;;13.50;5.30;;;;;;;-145.18;100.00;60484.78;5011972;28;20040;-67
2022/01/04 00:13:22;;;;;;;18.17;6.63;;;;;;;-145.18;100.00;60484.78;5008904;28;20060;-66
2022/01/04 00:15:48;;;;;;;18.13;5.90;;;;;;;-145.18;100.00;60484.78;5009920;28;20257;-66
2022/01/04 00:18:15;;;;;;;19.17;6.43;;;;;;;-145.18;100.00;60484.78;5017063;28;20124;-66
2022/01/04 00:20:40;;;;;;;20.70;6.30;;;;;;;-145.18;100.00;60484.78;5015335;28;20034;-67
2022/01/04 00:23:06;;;;;;;14.73;5.73;;;;;;;-145.18;100.00;60484.78;5013811;28;20524;-67
2022/01/04 00:25:32;;;;;;;17.20;6.13;;;;;;;-145.18;100.00;60484.78;5012843;28;20033;-67
2022/01/04 00:27:58;;;;;;;15.70;5.93;;;;;;;-145.18;100.00;60484.78;5015754;28;20124;-67
2022/01/04 00:30:28;;;;;;;18.40;6.33;;;;;;;-145.18;100.00;60484.78;5016889;28;20037;-66
2022/01/04 00:32:54;;;;;;;16.57;6.17;;;;;;;-145.18;100.00;60484.78;5020291;28;20109;-67
2022/01/04 00:35:20;;;;;;;18.83;5.60;;;;;;;-145.18;100.00;60484.78;5016913;28;20060;-67
2022/01/04 00:37:46;;;;;;;17.30;6.03;;;;;;;-145.18;100.00;60484.78;5010154;28;20509;-67
2022/01/04 00:40:11;;;;;;;18.70;7.10;;;;;;;-145.18;100.00;60484.78;5019693;28;20033;-67
2022/01/04 00:42:37;;;;;;;17.37;6.33;;;;;;;-145.18;100.00;60484.78;5011184;28;20129;-67
2022/01/04 00:45:04;;;;;;;15.10;6.07;;;;;;;-145.18;100.00;60484.78;5019250;28;20095;-67
2022/01/04 00:47:41;;;;;;;23.53;7.77;;;;;;;-145.18;100.00;60484.78;5014589;28;20079;-67
2022/01/04 00:50:07;;;;;;;17.60;6.20;;;;;;;-145.18;100.00;60484.78;5019853;28;20617;-67
2022/01/04 00:52:32;;;;;;;17.67;6.40;;;;;;;-145.18;100.00;60484.78;5017238;28;20316;-67
2022/01/04 00:54:58;;;;;;;18.50;7.00;;;;;;;-145.18;100.00;60484.78;5013859;28;20029;-67
2022/01/04 00:57:23;;;;;;;15.67;6.63;;;;;;;-145.18;100.00;60484.78;5017348;28;20025;-67
2022/01/04 00:59:48;;;;;;;24.23;7.07;;;;;;;-145.18;100.00;60484.78;5018684;28;20039;-67
2022/01/04 01:02:14;;;;;;;18.80;7.07;;;;;;;-145.18;100.00;60484.78;5015930;28;20033;-67
2022/01/04 01:04:39;;;;;;;19.27;6.90;;;;;;;-145.18;100.00;60484.78;5011863;28;20118;-67
2022/01/04 01:07:05;;;;;;;19.63;7.00;;;;;;;-145.18;100.00;60484.78;5016978;28;20505;-67
2022/01/04 01:09:35;;;;;;;16.60;6.80;;;;;;;-145.18;100.00;60484.78;5019124;28;20470;-67
2022/01/04 01:12:00;;;;;;;20.27;7.03;;;;;;;-145.18;100.00;60484.78;5019956;28;20041;-67
2022/01/04 01:14:25;;;;;;;16.93;6.97;;;;;;;-145.18;100.00;60484.78;5018599;28;20022;-67
2022/01/04 01:16:51;;;;;;;21.63;8.47;;;;;;;-145.18;100.00;60484.78;5020096;28;20113;-67
2022/01/04 01:19:18;;;;;;;24.07;7.77;;;;;;;-145.18;100.00;60484.78;5019590;28;20031;-67
2022/01/04 01:21:43;;;;;;;17.80;6.27;;;;;;;-145.18;100.00;60484.78;5020010;28;20099;-67
2022/01/04 01:24:09;;;;;;;18.30;7.27;;;;;;;-145.18;100.00;60484.78;5017832;28;20030;-67
2022/01/04 01:26:34;;;;;;;20.57;7.10;;;;;;;-145.18;100.00;60484.78;5018554;28;20061;-67
2022/01/04 01:29:00;;;;;;;19.60;7.20;;;;;;;-145.18;100.00;60484.78;5012892;28;20033;-67
2022/01/04 01:31:27;;;;;;;18.60;7.10;;;;;;;-145.18;100.00;60484.78;5013418;28;20604;-66
2022/01/04 01:33:53;;;;;;;20.17;6.73;;;;;;;-145.18;100.00;60484.78;5016834;28;20076;-67
2022/01/04 01:36:18;;;;;;;18.70;6.67;;;;;;;-145.18;100.00;60484.78;5018616;28;20104;-67
2022/01/04 01:38:44;;;;;;;20.20;7.87;;;;;;;-145.18;100.00;60484.78;5017409;28;20272;-67
2022/01/04 01:41:10;;;;;;;22.67;7.30;;;;;;;-145.18;100.00;60484.78;5016614;28;20025;-66
2022/01/04 01:43:35;;;;;;;24.40;8.13;;;;;;;-145.18;100.00;60484.78;5010010;28;20034;-67
2022/01/04 01:46:01;;;;;;;20.00;6.97;;;;;;;-145.18;100.00;60484.78;5016982;28;20029;-67
2022/01/04 01:48:26;;;;;;;19.93;7.63;;;;;;;-145.18;100.00;60484.78;5017846;28;20061;-66
2022/01/04 01:50:52;;;;;;;22.87;7.93;;;;;;;-145.18;100.00;60484.78;5017903;28;20717;-67
2022/01/04 01:53:17;;;;;;;18.43;7.60;;;;;;;-145.18;100.00;60484.78;5018318;28;20033;-67
2022/01/04 01:55:43;;;;;;;22.10;7.40;;;;;;;-145.18;100.00;60484.78;5008487;28;20399;-67
2022/01/04 01:58:08;;;;;;;20.30;8.40;;;;;;;-145.18;100.00;60484.78;5005460;28;20026;-67
2022/01/04 02:00:34;;;;;;;24.83;7.93;;;;;;;-145.18;100.00;60484.78;5018568;28;20032;-67
2022/01/04 02:03:02;;;;;;;24.10;8.43;;;;;;;-145.18;100.00;60484.78;5013419;28;20029;-67
2022/01/04 02:05:28;;;;;;;23.87;8.67;;;;;;;-145.18;100.00;60484.78;5018821;28;20049;-67
2022/01/04 02:07:53;;;;;;;21.10;8.23;;;;;;;-145.18;100.00;60484.78;5019392;28;20099;-67
2022/01/04 02:10:19;;;;;;;21.80;8.40;;;;;;;-145.18;100.00;60484.78;5019676;28;20037;-67
2022/01/04 02:12:47;;;;;;;25.97;8.97;;;;;;;-145.18;100.00;60484.78;5019344;28;20040;-67
2022/01/04 02:15:16;;;;;;;23.30;7.60;;;;;;;-145.18;100.00;60484.78;5019540;28;20096;-67
2022/01/04 02:17:41;;;;;;;23.00;7.80;;;;;;;-145.18;100.00;60484.78;5018840;28;20577;-67
2022/01/04 02:20:08;;;;;;;25.03;8.33;;;;;;;-145.18;100.00;60484.78;5017767;28;20285;-67
2022/01/04 02:22:34;;;;;;;24.80;9.20;;;;;;;-145.18;100.00;60484.78;5019379;28;20461;-66
2022/01/04 02:24:59;;;;;;;18.43;7.87;;;;;;;-145.18;100.00;60484.78;5018518;28;20111;-67
2022/01/04 02:27:25;;;;;;;24.07;7.67;;;;;;;-145.18;100.00;60484.78;5008740;28;20528;-67
2022/01/04 02:29:51;;;;;;;20.60;8.97;;;;;;;-145.18;100.00;60484.78;5016026;28;20048;-67
2022/01/04 02:32:16;;;;;;;24.20;7.73;;;;;;;-145.18;100.00;60484.78;5018897;28;20022;-67
2022/01/04 02:34:50;;;;;;;20.20;7.70;;;;;;;-145.18;100.00;60484.78;5018934;28;20306;-67
2022/01/04 02:37:21;;;;;;;18.70;8.07;;;;;;;-145.18;100.00;60484.78;5019404;28;20112;-67
2022/01/04 02:39:47;;;;;;;20.37;8.00;;;;;;;-145.18;100.00;60484.78;5019164;28;20105;-67
2022/01/04 02:42:13;;;;;;;25.53;8.40;;;;;;;-145.18;100.00;60484.78;5018770;28;20037;-66
2022/01/04 02:44:39;;;;;;;20.33;8.70;;;;;;;-145.18;100.00;60484.78;5018899;28;20490;-67
2022/01/04 02:47:04;;;;;;;23.77;8.90;;;;;;;-145.18;100.00;60484.78;5019273;28;20013;-67
2022/01/04 02:49:30;;;;;;;24.77;7.53;;;;;;;-145.18;100.00;60484.78;5019089;28;20669;-66
2022/01/04 02:51:55;;;;;;;28.87;8.80;;;;;;;-145.18;100.00;60484.78;5018722;28;20161;-67
2022/01/04 02:54:21;;;;;;;25.97;8.30;;;;;;;-145.18;100.00;60484.78;5018816;28;20068;-67
2022/01/04 02:56:47;;;;;;;23.73;7.23;;;;;;;-145.18;100.00;60484.78;5019063;28;20072;-67
2022/01/04 02:59:13;;;;;;;19.00;7.40;;;;;;;-145.18;100.00;60484.78;5018673;28;20191;-67
2022/01/04 03:01:38;;;;;;;26.50;8.03;;;;;;;-145.18;100.00;60484.78;5018679;28;20301;-67
2022/01/04 03:04:04;;;;;;;21.00;8.30;;;;;;;-145.18;100.00;60484.78;5018240;28;20712;-67
2022/01/04 03:06:29;;;;;;;23.33;8.83;;;;;;;-145.18;100.00;60484.78;5018781;28;20155;-66
2022/01/04 03:08:55;;;;;;;20.83;8.50;;;;;;;-145.18;100.00;60484.78;5018830;28;20037;-67
2022/01/04 03:11:20;;;;;;;20.73;7.80;;;;;;;-145.18;100.00;60484.78;5018333;28;20572;-67
2022/01/04 03:13:46;;;;;;;16.83;7.10;;;;;;;-145.18;100.00;60484.78;5018463;28;20279;-67
2022/01/04 03:16:11;;;;;;;20.13;8.20;;;;;;;-145.18;100.00;60484.78;5019318;28;20018;-67
2022/01/04 03:18:49;;;;;;;20.97;7.80;;;;;;;-145.18;100.00;60484.78;5018566;28;20213;-66
2022/01/04 03:21:15;;;;;;;22.07;7.77;;;;;;;-145.18;100.00;60484.78;5018939;28;20272;-67
2022/01/04 03:23:40;;;;;;;20.60;7.50;;;;;;;-145.18;100.00;60484.78;5018257;28;20177;-67
2022/01/04 03:26:05;;;;;;;21.97;6.90;;;;;;;-145.18;100.00;60484.78;5018866;28;20029;-67
2022/01/04 03:28:31;;;;;;;24.63;8.30;;;;;;;-145.18;100.00;60484.78;5015082;28;20437;-67
2022/01/04 03:30:56;;;;;;;22.33;7.53;;;;;;;-145.18;100.00;60484.78;5018908;28;20029;-67
2022/01/04 03:33:22;;;;;;;17.17;7.10;;;;;;;-145.18;100.00;60484.78;5017966;28;20026;-67
2022/01/04 03:35:47;;;;;;;20.93;8.00;;;;;;;-145.18;100.00;60484.78;5018114;28;20034;-67
2022/01/04 03:38:12;;;;;;;21.47;7.73;;;;;;;-145.18;100.00;60484.78;5018175;28;20307;-67
2022/01/04 03:40:38;;;;;;;18.77;7.73;;;;;;;-145.18;100.00;60484.78;5018787;28;20296;-66
2022/01/04 03:43:03;;;;;;;17.13;7.20;;;;;;;-145.18;100.00;60484.78;5018152;28;20052;-67
2022/01/04 03:45:28;;;;;;;18.23;7.07;;;;;;;-145.18;100.00;60484.78;5016920;28;20045;-66
2022/01/04 03:47:54;;;;;;;18.03;7.00;;;;;;;-145.18;100.00;60484.78;5017291;28;20847;-67
2022/01/04 03:50:19;;;;;;;17.47;7.33;;;;;;;-145.18;100.00;60484.78;5018479;28;20120;-67
2022/01/04 03:52:45;;;;;;;20.60;6.57;;;;;;;-145.18;100.00;60484.78;5018371;28;20029;-66
2022/01/04 03:55:10;;;;;;;20.50;8.20;;;;;;;-145.18;100.00;60484.78;5018373;28;20028;-66
2022/01/04 03:57:36;;;;;;;19.87;8.27;;;;;;;-145.18;100.00;60484.78;5017786;28;20022;-66
2022/01/04 04:00:07;;;;;;;17.47;6.83;;;;;;;-145.18;100.00;60484.78;5018642;28;20508;-66
2022/01/04 04:02:32;;;;;;;22.77;8.13;;;;;;;-145.18;100.00;60484.78;5017774;28;20181;-66
2022/01/04 04:04:58;;;;;;;18.40;6.87;;;;;;;-145.18;100.00;60484.78;5018108;28;20579;-66
2022/01/04 04:07:23;;;;;;;16.30;6.33;;;;;;;-145.18;100.00;60484.78;5017797;28;20032;-66
2022/01/04 04:09:48;;;;;;;24.20;7.50;;;;;;;-145.18;100.00;60484.78;5013977;28;20397;-66
2022/01/04 04:12:14;;;;;;;28.20;7.00;;;;;;;-145.18;100.00;60484.78;5018554;28;20053;-66
2022/01/04 04:14:40;;;;;;;18.37;7.40;;;;;;;-145.18;100.00;60484.78;5018450;28;20059;-66
2022/01/04 04:17:06;;;;;;;17.87;7.10;;;;;;;-145.18;100.00;60484.78;5019548;28;20018;-66
2022/01/04 04:19:31;;;;;;;17.83;7.37;;;;;;;-145.18;100.00;60484.78;5021318;28;20160;-66
2022/01/04 04:21:56;;;;;;;24.40;8.13;;;;;;;-145.18;100.00;60484.78;5021698;28;20017;-66
2022/01/04 04:24:22;;;;;;;18.23;8.13;;;;;;;-145.18;100.00;60484.78;5021314;28;20262;-66
2022/01/04 04:26:47;;;;;;;20.67;6.83;;;;;;;-145.18;100.00;60484.78;5017306;28;20222;-66
2022/01/04 04:29:13;;;;;;;23.20;8.17;;;;;;;-145.18;100.00;60484.78;5021080;28;20262;-66
2022/01/04 04:31:38;;;;;;;15.37;6.90;;;;;;;-145.18;100.00;60484.78;5020304;28;20025;-66
2022/01/04 04:34:03;;;;;;;18.87;6.83;;;;;;;-145.18;100.00;60484.78;5019060;28;20209;-66
2022/01/04 04:36:30;;;;;;;17.13;6.80;;;;;;;-145.18;100.00;60484.78;5021396;28;20028;-66
2022/01/04 04:38:56;;;;;;;15.20;6.90;;;;;;;-145.18;100.00;60484.78;5021153;28;20036;-66
2022/01/04 04:41:22;;;;;;;15.83;7.00;;;;;;;-145.18;100.00;60484.78;5021666;28;20398;-66
2022/01/04 04:43:53;;;;;;;16.63;6.70;;;;;;;-145.18;100.00;60484.78;5020465;28;20033;-66
2022/01/04 04:46:18;;;;;;;17.63;6.43;;;;;;;-145.18;100.00;60484.78;5020655;28;20064;-66
2022/01/04 04:48:44;;;;;;;16.47;6.50;;;;;;;-145.18;100.00;60484.78;5019895;28;20279;-66
2022/01/04 04:51:09;;;;;;;16.17;6.80;;;;;;;-145.18;100.00;60484.78;5020449;28;20036;-66
2022/01/04 04:53:34;;;;;;;22.30;7.40;;;;;;;-145.18;100.00;60484.78;5016525;28;20289;-66
2022/01/04 04:56:00;;;;;;;17.33;7.20;;;;;;;-145.18;100.00;60484.78;5011399;28;20221;-66
2022/01/04 04:58:25;;;;;;;18.73;6.93;;;;;;;-145.18;100.00;60484.78;5013708;28;20095;-66
2022/01/04 05:00:51;;;;;;;18.53;7.70;;;;;;;-145.18;100.00;60484.78;5019993;28;20564;-66
2022/01/04 05:03:16;;;;;;;19.93;7.07;;;;;;;-145.18;100.00;60484.78;5019959;28;20225;-66
2022/01/04 05:05:41;;;;;;;16.27;6.80;;;;;;;-145.18;100.00;60484.78;5014791;28;20572;-66
2022/01/04 05:08:07;;;;;;;13.77;6.70;;;;;;;-145.18;100.00;60484.78;5020707;28;20040;-66
2022/01/04 05:10:32;;;;;;;17.70;5.97;;;;;;;-145.18;100.00;60484.78;5020344;28;20241;-66
2022/01/04 05:12:58;;;;;;;16.77;6.20;;;;;;;-145.18;100.00;60484.78;5020167;28;20033;-66
2022/01/04 05:15:23;;;;;;;12.57;5.57;;;;;;;-145.18;100.00;60484.78;5019459;28;20509;-66
2022/01/04 05:17:49;;;;;;;18.73;5.97;;;;;;;-145.18;100.00;60484.78;5018695;28;20101;-66
2022/01/04 05:20:15;;;;;;;15.53;6.80;;;;;;;-145.18;100.00;60484.78;5016976;28;20029;-66
2022/01/04 05:22:41;;;;;;;13.70;6.23;;;;;;;-145.18;100.00;60484.78;5019606;28;21331;-66
2022/01/04 05:25:07;;;;;;;17.00;6.13;;;;;;;-145.18;100.00;60484.78;5019660;28;20757;-66
2022/01/04 05:27:33;;;;;;;13.90;5.73;;;;;;;-145.18;100.00;60484.78;5016181;28;20034;-66
2022/01/04 05:29:58;;;;;;;12.87;5.87;;;;;;;-145.18;100.00;60484.78;5015427;28;20017;-66
2022/01/04 05:32:24;;;;;;;15.17;6.10;;;;;;;-145.18;100.00;60484.78;5019483;28;20032;-66
2022/01/04 05:34:49;;;;;;;13.93;6.00;;;;;;;-145.18;100.00;60484.78;5014712;28;20034;-66
2022/01/04 05:37:14;;;;;;;14.30;5.80;;;;;;;-145.18;100.00;60484.78;5020005;28;20378;-66
2022/01/04 05:39:40;;;;;;;15.93;5.90;;;;;;;-145.18;100.00;60484.78;5019256;28;20159;-66
2022/01/04 05:42:08;;;;;;;17.83;6.23;;;;;;;-145.18;100.00;60484.78;5019778;28;20474;-66
2022/01/04 05:44:34;;;;;;;16.40;6.53;;;;;;;-145.18;100.00;60484.78;5019688;28;20289;-66
2022/01/04 05:46:59;;;;;;;12.20;6.17;;;;;;;-145.18;100.00;60484.78;5019815;28;20186;-66
2022/01/04 05:49:24;;;;;;;17.17;6.27;;;;;;;-145.18;100.00;60484.78;5015762;28;20033;-66
2022/01/04 05:51:50;;;;;;;14.17;5.77;;;;;;;-145.18;100.00;60484.78;5018102;28;20029;-66
2022/01/04 05:54:15;;;;;;;14.43;5.53;;;;;;;-145.18;100.00;60484.78;5018997;28;20305;-66
2022/01/04 05:56:40;;;;;;;14.23;5.60;;;;;;;-145.18;100.00;60484.78;5019134;28;20018;-66
2022/01/04 05:59:06;;;;;;;15.13;5.83;;;;;;;-145.18;100.00;60484.78;5017579;28;20036;-66
2022/01/04 06:01:31;;;;;;;15.33;6.90;;;;;;;-145.18;100.00;60484.78;5019044;28;20266;-66
2022/01/04 06:03:57;;;;;;;20.43;6.83;;;;;;;-145.18;100.00;60484.78;5016178;28;20092;-66
2022/01/04 06:06:22;;;;;;;15.90;6.07;;;;;;;-145.18;100.00;60484.78;5014300;28;20289;-66
2022/01/04 06:08:49;;;;;;;15.67;5.83;;;;;;;-145.18;100.00;60484.78;5008144;28;20026;-66
2022/01/04 06:11:31;;;;;;;15.87;6.10;;;;;;;-145.18;100.00;60484.78;5019567;28;20204;-66
2022/01/04 06:16:41;;;;;;;16.57;6.87;;;;;;;-145.18;100.00;60484.78;5018266;28;20409;-66
2022/01/04 06:19:07;;;;;;;17.37;6.07;;;;;;;-145.18;100.00;60484.78;5017108;28;20048;-66
2022/01/04 06:21:32;;;;;;;14.60;6.13;;;;;;;-145.18;100.00;60484.78;5014881;28;20540;-66
2022/01/04 06:23:57;;;;;;;12.57;5.77;;;;;;;-145.18;100.00;60484.78;5017228;28;20282;-66
2022/01/04 06:26:24;;;;;;;17.70;6.00;;;;;;;-145.18;100.00;60484.78;5029623;28;20033;-66
2022/01/04 06:28:50;;;;;;;15.03;6.57;;;;;;;-145.18;100.00;60484.78;5019094;28;20037;-66
2022/01/04 06:31:15;;;;;;;16.70;6.63;;;;;;;-145.18;100.00;60484.78;5019818;28;20100;-66
2022/01/04 06:33:40;;;;;;;14.37;5.57;;;;;;;-145.18;100.00;60484.78;5019325;28;20232;-66
2022/01/04 06:36:06;;;;;;;13.87;6.07;;;;;;;-145.18;100.00;60484.78;5010924;28;20524;-66
2022/01/04 06:38:31;;;;;;;16.73;5.83;;;;;;;-145.18;100.00;60484.78;5019458;28;20192;-66
2022/01/04 06:40:57;;;;;;;19.80;6.13;;;;;;;-145.18;100.00;60484.78;5019028;28;20190;-66
2022/01/04 06:43:22;;;;;;;14.07;5.63;;;;;;;-145.18;100.00;60484.78;5018505;28;20033;-66
2022/01/04 06:45:48;;;;;;;16.60;5.47;;;;;;;-145.18;100.00;60484.78;5011089;28;20036;-66
2022/01/04 06:48:13;;;;;;;15.47;5.80;;;;;;;-145.18;100.00;60484.78;5019030;28;20148;-66
2022/01/04 06:50:39;;;;;;;13.33;5.67;;;;;;;-145.18;100.00;60484.78;5010685;28;20029;-66
2022/01/04 06:53:04;;;;;;;16.13;5.97;;;;;;;-145.18;100.00;60484.78;5018897;28;20037;-66
2022/01/04 06:55:31;;;;;;;19.03;5.90;;;;;;;-145.18;100.00;60484.78;5005429;28;20103;-66
2022/01/04 06:57:56;;;;;;;15.27;5.77;;;;;;;-145.18;100.00;60484.78;5018094;28;20144;-66
2022/01/04 07:00:22;;;;;;;14.47;5.40;;;;;;;-145.18;100.00;60484.78;5019078;28;20168;-66
2022/01/04 07:02:47;;;;;;;16.20;6.17;;;;;;;-145.18;100.00;60484.78;5018397;28;20198;-66
2022/01/04 07:05:13;;;;;;;16.80;5.90;;;;;;;-145.18;100.00;60484.78;5017766;28;20517;-66
2022/01/04 07:07:38;;;;;;;14.33;6.07;;;;;;;-145.18;100.00;60484.78;5012248;28;20125;-66
2022/01/04 07:10:04;;;;;;;14.07;5.43;;;;;;;-145.18;100.00;60484.78;5005483;28;20417;-66
2022/01/04 07:12:29;;;;;;;15.80;5.70;;;;;;;-145.18;100.00;60484.78;5017779;28;20267;-66
2022/01/04 07:14:54;;;;;;;13.83;6.53;;;;;;;-145.18;100.00;60484.78;5017798;28;20433;-66
2022/01/04 07:17:20;;;;;;;25.40;6.80;;;;;;;-145.18;100.00;60484.78;5018512;28;20020;-66
2022/01/04 07:19:47;;;;;;;17.77;6.50;;;;;;;-145.18;100.00;60484.78;5014082;28;20486;-66
2022/01/04 07:22:12;;;;;;;15.17;5.60;;;;;;;-145.18;100.00;60484.78;5018361;28;20030;-66
2022/01/04 07:24:38;;;;;;;19.07;6.50;;;;;;;-145.18;100.00;60484.78;5012407;28;20221;-66
2022/01/04 07:27:05;;;;;;;20.07;6.93;;;;;;;-145.18;100.00;60484.78;5017245;28;20071;-66
2022/01/04 07:29:30;;;;;;;21.40;6.60;;;;;;;-145.18;100.00;60484.78;5012538;28;20049;-67
2022/01/04 07:31:55;;;;;;;15.20;6.13;;;;;;;-145.18;100.00;60484.78;5016238;28;20569;-66
2022/01/04 07:34:21;;;;;;;17.83;6.07;;;;;;;-145.18;100.00;60484.78;5018186;28;20621;-66
2022/01/04 07:36:46;;;;;;;18.87;6.17;;;;;;;-145.18;100.00;60484.78;5018917;28;20017;-66
2022/01/04 07:39:12;;;;;;;13.43;6.20;;;;;;;-145.18;100.00;60484.78;5017736;28;20029;-66
2022/01/04 07:41:37;;;;;;;14.80;6.77;;;;;;;-145.18;100.00;60484.78;5008353;28;20033;-66
2022/01/04 07:44:03;;;;;;;19.00;6.87;;;;;;;-145.18;100.00;60484.78;5017577;28;20373;-66
2022/01/04 07:46:28;;;;;;;18.73;6.37;;;;;;;-145.18;100.00;60484.78;5018632;28;20303;-66
2022/01/04 07:48:54;;;;;;;16.73;5.77;;;;;;;-145.18;100.00;60484.78;5018693;28;20028;-66
2022/01/04 07:51:19;;;;;;;15.53;7.03;;;;;;;-145.18;100.00;60484.78;5018520;28;20037;-66
2022/01/04 07:53:45;;;;;;;19.33;6.73;;;;;;;-145.18;100.00;60484.78;5021119;28;20404;-66
2022/01/04 07:56:11;;;;;;;20.10;6.13;;;;;;;-145.18;100.00;60484.78;5022855;28;20507;-66
2022/01/04 07:58:36;;;;;;;19.90;6.63;;;;;;;-145.18;100.00;60484.78;5022207;28;20289;-66
2022/01/04 08:01:02;;;;;;;18.67;7.10;;;;;;;-145.18;100.00;60484.78;5022490;28;20636;-66
2022/01/04 08:03:27;;;;;;;15.80;6.63;;;;;;;-145.18;100.00;60484.78;5020834;28;20261;-66
2022/01/04 08:05:53;;;;;;;18.73;7.30;;;;;;;-145.18;100.00;60484.78;5017291;28;20275;-66
2022/01/04 08:08:18;;;;;;;20.97;7.37;;;;;;;-145.18;100.00;60484.78;5022136;28;20039;-66
2022/01/04 08:10:46;;;;;;;18.90;7.70;;;;;;;-145.18;100.00;60484.78;5022047;28;20488;-66
2022/01/04 08:13:12;;;;;;;18.77;7.30;;;;;;;-145.18;100.00;60484.78;5022064;28;20457;-66
2022/01/04 08:15:38;;;;;;;19.23;6.40;;;;;;;-145.18;100.00;60484.78;5021173;28;20029;-66
2022/01/04 08:18:03;;;;;;;20.27;7.23;;;;;;;-145.18;100.00;60484.78;5021686;28;20082;-66
2022/01/04 08:20:28;;;;;;;18.00;6.87;;;;;;;-145.18;100.00;60484.78;5019746;28;20076;-66
2022/01/04 08:22:54;;;;;;;20.43;6.33;;;;;;;-145.18;100.00;60484.78;5020924;28;20022;-66
2022/01/04 08:25:20;;;;;;;17.70;7.20;;;;;;;-145.18;100.00;60484.78;5021951;28;20025;-66
2022/01/04 08:27:46;;;;;;;15.43;5.70;;;;;;;-145.18;100.00;60484.78;5021115;28;20065;-66
2022/01/04 08:30:12;;;;;;;19.80;6.80;;;;;;;-145.18;100.00;60484.78;5020704;28;20025;-66
2022/01/04 08:32:38;;;;;;;20.57;7.37;;;;;;;-145.18;100.00;60484.78;5021170;28;20098;-66
2022/01/04 08:35:07;;;;;;;23.63;6.97;;;;;;;-145.18;100.00;60484.78;5018614;28;20021;-66
2022/01/04 08:37:33;;;;;;;13.57;5.90;;;;;;;-145.18;100.00;60484.78;5020965;28;20025;-66
2022/01/04 08:39:59;;;;;;;17.03;6.90;;;;;;;-145.18;100.00;60484.78;5021136;28;20462;-66
2022/01/04 08:42:25;;;;;;;19.00;6.90;;;;;;;-145.18;100.00;60484.78;5021326;28;20029;-66
2022/01/04 08:44:51;;;;;;;18.13;7.03;;;;;;;-145.18;100.00;60484.78;5021194;28;20062;-66
2022/01/04 08:47:17;;;;;;;20.77;7.00;;;;;;;-145.18;100.00;60484.78;5021117;28;20065;-66
2022/01/04 08:49:43;;;;;;;23.37;7.27;;;;;;;-145.18;100.00;60484.78;5020945;28;20317;-66
2022/01/04 08:52:09;;;;;;;19.23;8.07;;;;;;;-145.18;100.00;60484.78;5011796;28;20029;-66
2022/01/04 08:54:35;;;;;;;17.57;7.47;;;;;;;-145.18;100.00;60484.78;5020902;28;20037;-66
2022/01/04 08:57:02;;;;;;;20.03;7.13;;;;;;;-145.18;100.00;60484.78;5021037;28;20057;-66
2022/01/04 08:59:28;;;;;;;17.77;6.90;;;;;;;-145.18;100.00;60484.78;5020705;28;20056;-66
2022/01/04 09:01:56;;;;;;;21.50;7.07;;;;;;;-145.18;100.00;60484.78;5020583;28;20418;-66
2022/01/04 09:04:21;;;;;;;21.77;7.50;;;;;;;-145.18;100.00;60484.78;5019771;28;20494;-66
2022/01/04 09:06:47;;;;;;;17.63;7.03;;;;;;;-145.18;100.00;60484.78;5020381;28;20082;-66
2022/01/04 09:09:13;;;;;;;16.77;7.10;;;;;;;-145.18;100.00;60484.78;5021027;28;20541;-66
2022/01/04 09:11:38;;;;;;;18.73;6.67;;;;;;;-145.18;100.00;60484.78;5018256;28;20158;-66
2022/01/04 09:19:24;;;;;;;19.37;7.37;;;;;;;-145.18;100.00;60484.78;5020542;28;20449;-66
2022/01/04 09:21:50;;;;;;;21.07;7.33;;;;;;;-145.18;100.00;60484.78;5020679;28;20033;-66
2022/01/04 09:24:16;;;;;;;16.23;6.07;;;;;;;-145.18;100.00;60484.78;5011449;28;20029;-66
2022/01/04 09:26:41;;;;;;;22.70;6.60;;;;;;;-145.18;100.00;60484.78;5019165;28;20102;-66
2022/01/04 09:29:07;;;;;;;18.80;7.00;;;;;;;-145.18;100.00;60484.78;5020282;28;20061;-66
2022/01/04 09:31:33;;;;;;;17.47;6.17;;;;;;;-145.18;100.00;60484.78;5020850;28;20221;-66
2022/01/04 09:34:00;;;;;;;17.77;5.97;;;;;;;-145.18;100.00;60484.78;5018468;28;20036;-67
2022/01/04 09:36:35;;;;;;;17.80;6.53;;;;;;;-145.18;100.00;60484.78;5020310;28;20021;-66
2022/01/04 09:39:02;;;;;;;16.70;6.10;;;;;;;-145.18;100.00;60484.78;5019918;28;20150;-66
2022/01/04 09:41:28;;;;;;;22.03;7.17;;;;;;;-145.18;100.00;60484.78;5020367;28;20174;-66
2022/01/04 09:43:54;;;;;;;23.67;6.70;;;;;;;-145.18;100.00;60484.78;5019963;28;20385;-67
2022/01/04 09:46:20;;;;;;;22.40;7.13;;;;;;;-145.18;100.00;60484.78;5019745;28;20029;-66
2022/01/04 09:48:45;;;;;;;16.30;6.07;;;;;;;-145.18;100.00;60484.78;5019423;28;20513;-66
2022/01/04 09:51:13;;;;;;;16.73;6.47;;;;;;;-145.18;100.00;60484.78;5014960;28;20057;-68
2022/01/04 09:53:39;;;;;;;18.80;6.73;;;;;;;-145.18;100.00;60484.78;5018484;28;20669;-66
2022/01/04 09:56:04;;;;;;;20.17;7.20;;;;;;;-145.18;100.00;60484.78;5020057;28;20104;-66
2022/01/04 09:58:30;;;;;;;18.07;6.07;;;;;;;-145.18;100.00;60484.78;5015138;28;20271;-66
2022/01/04 10:00:56;;;;;;;16.60;5.83;;;;;;;-145.18;100.00;60484.78;5004924;28;20038;-67
2022/01/04 10:03:28;;;;;;;16.13;6.53;;;;;;;-145.18;100.00;60484.78;5017456;28;20204;-66
2022/01/04 10:06:05;;;;;;;19.05;6.80;;;;;;;-145.18;100.00;60484.78;5019230;28;20060;-66
2022/01/04 10:08:31;;;;;;;18.60;6.70;;;;;;;-145.18;100.00;60484.78;5019582;28;20394;-67
2022/01/04 10:11:04;;;;;;;12.50;5.07;;;;;;;-145.18;100.00;60484.78;5019080;28;20025;-66
2022/01/04 10:13:30;;;;;;;20.83;7.10;;;;;;;-145.18;100.00;60484.78;5002960;28;20053;-67
2022/01/04 10:15:56;;;;;;;19.77;5.70;;;;;;;-145.18;100.00;60484.78;5012993;28;20122;-66
2022/01/04 10:18:24;;;;;;;17.63;6.30;;;;;;;-145.18;100.00;60484.78;5019521;28;20280;-66
2022/01/04 10:20:51;;;;;;;21.30;6.60;;;;;;;-145.18;100.00;60484.78;5019558;28;20311;-66
2022/01/04 10:23:21;;;;;;;16.50;6.17;;;;;;;-145.18;100.00;60484.78;5018476;28;20029;-67
2022/01/04 10:25:48;;;;;;;13.23;4.63;;;;;;;-145.18;100.00;60484.78;5019456;28;20108;-66
2022/01/04 10:28:30;;;;;;;12.00;5.07;;;;;;;-145.18;100.00;60484.78;5016193;28;20052;-66
2022/01/04 10:30:58;;;;;;;;;;;;;;;-145.18;100.00;60484.78;5019883;28;20302;-67
2022/01/04 10:33:24;;;;;;;15.33;6.00;;;;;;;-145.18;100.00;60484.78;5019142;28;19913;-66
2022/01/04 10:35:54;;;;;;;19.33;6.50;;;;;;;-145.18;100.00;60484.78;5018618;28;20583;-66
2022/01/04 10:38:23;;;;;;;18.47;5.90;;;;;;;-145.18;100.00;60484.78;5019101;28;20351;-66
2022/01/04 10:40:56;;;;;;;13.90;5.57;;;;;;;-145.18;100.00;60484.78;5005931;28;20516;-66
2022/01/04 10:43:24;;;;;;;17.40;5.40;;;;;;;-145.18;100.00;60484.78;5018837;28;20113;-67
2022/01/04 10:45:51;;;;;;;16.33;5.63;;;;;;;-145.18;100.00;60484.78;5019082;28;20022;-67
2022/01/04 10:48:29;;;;;;;18.40;6.37;;;;;;;-145.18;100.00;60484.78;5017954;28;20249;-66
2022/01/04 10:50:58;;;;;;;17.87;6.20;;;;;;;-145.18;100.00;60484.78;5019082;28;20044;-66
2022/01/04 10:53:27;;;;;;;19.50;5.77;;;;;;;-145.18;100.00;60484.78;5018707;28;20040;-67
2022/01/04 10:55:59;;;;;;;15.03;5.63;;;;;;;-145.18;100.00;60484.78;5019141;28;20444;-66
2022/01/04 10:58:33;;;;;;;15.23;6.25;;;;;;;-145.18;100.00;60484.78;5017802;28;20025;-67
2022/01/04 11:01:09;;;;;;;13.83;5.50;;;;;;;-145.18;100.00;60484.78;5018199;28;20068;-67
2022/01/04 11:03:37;;;;;;;16.03;6.10;;;;;;;-145.18;100.00;60484.78;5011744;28;20401;-66
2022/01/04 11:06:06;;;;;;;14.87;5.73;;;;;;;-145.18;100.00;60484.78;5001369;28;20104;-67